createdAt,value
2019-04-30T00:01:22.503Z,56.40
2019-04-30T00:04:07.992Z,56.90
2019-04-30T00:06:39.491Z,57.10
2019-04-30T00:09:15.224Z,56.90
2019-04-30T00:11:40.977Z,57.40
2019-04-30T00:14:10.404Z,58.20
2019-04-30T00:16:40.043Z,57.90
2019-04-30T00:19:10.608Z,58.30
2019-04-30T00:21:40.706Z,58.40
2019-04-30T00:24:10.322Z,58.40
2019-04-30T00:26:40.052Z,57.90
2019-04-30T00:29:10.886Z,58.10
2019-04-30T00:31:40.215Z,58.70
2019-04-30T00:34:09.543Z,58.20
2019-04-30T00:36:38.871Z,58.50
2019-04-30T00:39:13.116Z,58.90
2019-04-30T00:41:39.921Z,58.70
2019-04-30T00:44:10.294Z,58.70
2019-04-30T00:46:39.726Z,59.90
2019-04-30T00:49:15.905Z,58.70
2019-04-30T00:51:40.160Z,59.10
2019-04-30T00:54:09.492Z,58.10
2019-04-30T00:56:38.819Z,58.30
2019-04-30T00:59:10.467Z,59.30
2019-04-30T01:02:00.876Z,59.10
2019-04-30T01:04:34.973Z,58.70
2019-04-30T01:07:08.524Z,57.30
2019-04-30T01:09:39.599Z,57.30
2019-04-30T01:12:07.002Z,56.60
2019-04-30T01:14:36.322Z,55.60
2019-04-30T01:17:08.889Z,56.20
2019-04-30T01:19:36.907Z,56.70
2019-04-30T01:22:06.234Z,55.30
2019-04-30T01:24:35.567Z,55.20
2019-04-30T01:27:06.792Z,55.50
2019-04-30T01:29:41.011Z,55.70
2019-04-30T01:32:10.389Z,56.00
2019-04-30T01:34:39.512Z,55.50
2019-04-30T01:37:08.980Z,56.20
2019-04-30T01:39:39.158Z,56.50
2019-04-30T01:42:11.354Z,56.80
2019-04-30T01:44:43.393Z,56.20
2019-04-30T01:47:10.682Z,55.90
2019-04-30T01:49:42.675Z,55.70
2019-04-30T01:52:11.055Z,55.60
2019-04-30T01:54:40.379Z,55.00
2019-04-30T01:57:33.242Z,55.00
2019-04-30T02:00:13.503Z,56.50
2019-04-30T02:02:43.469Z,56.50
2019-04-30T02:05:12.871Z,56.10
2019-04-30T02:07:42.274Z,55.10
2019-04-30T02:10:12.375Z,54.90
2019-04-30T02:12:41.690Z,55.40
2019-04-30T02:15:11.419Z,56.00
2019-04-30T02:17:40.743Z,56.50
2019-04-30T02:20:10.163Z,56.70
2019-04-30T02:22:39.486Z,55.40
2019-04-30T02:25:09.757Z,56.20
2019-04-30T02:27:39.163Z,54.60
2019-04-30T02:30:11.111Z,53.40
2019-04-30T02:32:40.275Z,53.60
2019-04-30T02:35:29.312Z,54.30
2019-04-30T02:38:15.310Z,54.40
2019-04-30T02:40:45.707Z,55.80
2019-04-30T02:43:16.344Z,54.70
2019-04-30T02:45:49.859Z,55.10
2019-04-30T02:48:22.183Z,54.60
2019-04-30T02:50:53.337Z,56.50
2019-04-30T02:54:00.377Z,56.00
2019-04-30T02:56:30.018Z,55.20
2019-04-30T02:59:03.164Z,55.20
2019-04-30T03:01:30.755Z,55.60
2019-04-30T03:04:00.143Z,55.60
2019-04-30T03:06:30.408Z,56.30
2019-04-30T03:09:01.152Z,57.20
2019-04-30T03:11:30.767Z,56.90
2019-04-30T03:14:00.084Z,56.70
2019-04-30T03:16:40.291Z,57.40
2019-04-30T03:19:22.248Z,57.50
2019-04-30T03:21:55.887Z,58.50
2019-04-30T03:24:25.275Z,56.50
2019-04-30T03:26:54.604Z,57.00
2019-04-30T03:29:24.203Z,55.20
2019-04-30T03:31:54.366Z,55.20
2019-04-30T03:34:25.851Z,54.60
2019-04-30T03:36:54.811Z,45.10
2019-04-30T03:39:24.156Z,47.50
2019-04-30T03:41:53.479Z,45.70
2019-04-30T03:44:25.892Z,47.20
2019-04-30T03:46:53.984Z,41.70
2019-04-30T03:49:23.315Z,39.40
2019-04-30T03:51:52.639Z,44.40
2019-04-30T03:54:21.967Z,45.70
2019-04-30T03:56:52.951Z,47.40
2019-04-30T03:59:22.371Z,48.00
2019-04-30T04:02:04.703Z,47.30
2019-04-30T04:04:42.149Z,48.20
2019-04-30T04:07:45.638Z,41.70
2019-04-30T04:10:40.479Z,41.30
2019-04-30T04:13:10.333Z,38.60
2019-04-30T04:15:40.143Z,43.60
2019-04-30T04:18:10.638Z,43.20
2019-04-30T04:20:42.954Z,41.30
2019-04-30T04:23:11.370Z,43.20
2019-04-30T04:25:40.759Z,43.20
2019-04-30T04:28:10.257Z,44.70
2019-04-30T04:30:42.823Z,43.80
2019-04-30T04:33:10.720Z,42.20
2019-04-30T04:35:40.041Z,42.10
2019-04-30T04:38:12.292Z,44.60
2019-04-30T04:40:40.403Z,44.90
2019-04-30T04:43:10.415Z,43.40
2019-04-30T04:45:43.476Z,47.10
2019-04-30T04:48:11.010Z,46.50
2019-04-30T04:50:40.394Z,45.50
2019-04-30T04:53:11.572Z,42.30
2019-04-30T04:55:40.872Z,39.60
2019-04-30T04:58:12.793Z,38.90
2019-04-30T05:00:41.347Z,41.90
2019-04-30T05:03:22.939Z,41.00
2019-04-30T05:05:52.340Z,38.60
2019-04-30T05:08:21.663Z,36.30
2019-04-30T05:10:51.058Z,34.20
2019-04-30T05:13:20.379Z,34.80
2019-04-30T05:15:51.592Z,33.50
2019-04-30T05:18:22.743Z,34.20
2019-04-30T05:20:51.866Z,36.90
2019-04-30T05:23:21.885Z,35.30
2019-04-30T05:25:51.411Z,35.60
2019-04-30T05:28:20.819Z,36.20
2019-04-30T05:30:50.152Z,35.60
2019-04-30T05:33:19.482Z,36.40
2019-04-30T05:35:49.594Z,37.90
2019-04-30T05:38:19.044Z,39.40
2019-04-30T05:40:49.603Z,39.50
2019-04-30T05:43:19.364Z,40.20
2019-04-30T05:45:49.208Z,41.00
2019-04-30T05:48:18.744Z,40.80
2019-04-30T05:50:51.513Z,40.70
2019-04-30T05:53:19.202Z,41.10
2019-04-30T05:55:49.380Z,42.20
2019-04-30T05:58:19.824Z,41.70
2019-04-30T06:00:49.943Z,41.70
2019-04-30T06:03:27.563Z,41.80
2019-04-30T06:05:50.570Z,42.10
2019-04-30T06:08:22.186Z,41.10
2019-04-30T06:10:59.756Z,39.90
2019-04-30T06:13:50.495Z,40.20
2019-04-30T06:16:22.263Z,39.60
2019-04-30T06:18:51.582Z,37.60
2019-04-30T06:21:21.526Z,38.70
2019-04-30T06:23:51.110Z,38.60
2019-04-30T06:26:20.840Z,38.60
2019-04-30T06:28:50.335Z,39.30
2019-04-30T06:31:31.662Z,38.90
2019-04-30T06:33:50.836Z,39.30
2019-04-30T06:36:20.515Z,38.20
2019-04-30T06:38:49.842Z,38.60
2019-04-30T06:41:19.810Z,38.40
2019-04-30T06:43:49.938Z,37.70
2019-04-30T06:46:19.381Z,36.80
2019-04-30T06:48:51.024Z,37.40
2019-04-30T06:51:20.434Z,36.50
2019-04-30T06:53:51.360Z,36.80
2019-04-30T06:56:20.862Z,36.20
2019-04-30T06:58:52.400Z,35.50
2019-04-30T07:01:21.331Z,35.80
2019-04-30T07:03:50.737Z,37.10
2019-04-30T07:06:29.115Z,37.40
2019-04-30T07:09:19.732Z,37.30
2019-04-30T07:12:03.984Z,36.80
2019-04-30T07:14:33.461Z,37.60
2019-04-30T07:17:02.886Z,37.80
2019-04-30T07:19:43.450Z,38.90
2019-04-30T07:22:03.296Z,39.20
2019-04-30T07:24:32.691Z,39.50
2019-04-30T07:27:02.837Z,39.10
2019-04-30T07:29:32.278Z,39.50
2019-04-30T07:32:01.632Z,39.10
2019-04-30T07:34:36.645Z,38.40
2019-04-30T07:37:11.926Z,38.90
2019-04-30T07:39:33.515Z,38.80
2019-04-30T07:42:02.976Z,38.80
2019-04-30T07:44:36.402Z,39.50
2019-04-30T07:47:03.357Z,38.60
2019-04-30T07:49:46.776Z,38.80
2019-04-30T07:52:04.266Z,39.20
2019-04-30T07:54:34.040Z,39.90
2019-04-30T07:57:03.496Z,39.50
2019-04-30T07:59:32.895Z,38.90
2019-04-30T08:02:10.027Z,38.60
2019-04-30T08:04:51.420Z,39.60
2019-04-30T08:07:20.897Z,40.10
2019-04-30T08:09:50.293Z,39.70
2019-04-30T08:12:25.812Z,42.50
2019-04-30T08:14:50.664Z,39.50
2019-04-30T08:17:19.990Z,39.30
2019-04-30T08:19:49.323Z,40.50
2019-04-30T08:22:19.671Z,39.40
2019-04-30T08:24:49.295Z,40.50
2019-04-30T08:27:19.664Z,39.60
2019-04-30T08:29:50.002Z,40.00
2019-04-30T08:32:19.475Z,39.60
2019-04-30T08:34:50.132Z,40.90
2019-04-30T08:37:20.302Z,40.30
2019-04-30T08:39:49.882Z,41.80
2019-04-30T08:42:30.903Z,40.90
2019-04-30T08:44:50.351Z,40.30
2019-04-30T08:47:21.295Z,40.10
2019-04-30T08:49:50.868Z,40.10
2019-04-30T08:52:20.508Z,39.20
2019-04-30T08:54:50.094Z,38.20
2019-04-30T08:57:19.521Z,39.80
2019-04-30T08:59:49.476Z,38.30
2019-04-30T09:02:19.744Z,38.60
2019-04-30T09:04:52.486Z,39.30
2019-04-30T09:07:21.906Z,38.40
2019-04-30T09:09:51.239Z,39.10
2019-04-30T09:12:20.571Z,38.70
2019-04-30T09:14:49.907Z,39.00
2019-04-30T09:17:19.902Z,39.40
2019-04-30T09:19:49.391Z,40.00
2019-04-30T09:22:19.510Z,38.70
2019-04-30T09:24:49.720Z,39.40
2019-04-30T09:27:19.703Z,38.10
2019-04-30T09:29:49.368Z,37.70
2019-04-30T09:32:19.415Z,37.30
2019-04-30T09:34:49.011Z,37.40
2019-04-30T09:37:18.821Z,37.30
2019-04-30T09:39:49.402Z,38.10
2019-04-30T09:42:19.592Z,36.70
2019-04-30T09:44:49.396Z,37.00
2019-04-30T09:47:20.046Z,37.80
2019-04-30T09:49:49.632Z,37.90
2019-04-30T09:52:19.910Z,37.20
2019-04-30T09:54:50.189Z,36.50
2019-04-30T09:57:20.026Z,37.50
2019-04-30T09:59:49.438Z,37.90
2019-04-30T10:02:19.300Z,37.90
2019-04-30T10:04:49.311Z,37.50
2019-04-30T10:07:19.517Z,37.80
2019-04-30T10:09:50.879Z,37.50
2019-04-30T10:12:20.042Z,38.10
2019-04-30T10:14:49.648Z,35.80
2019-04-30T10:17:34.362Z,36.40
2019-04-30T10:20:04.420Z,36.00
2019-04-30T10:22:33.748Z,37.40
2019-04-30T10:25:03.074Z,36.80
2019-04-30T10:27:32.407Z,36.60
2019-04-30T10:30:02.207Z,35.70
2019-04-30T10:32:31.607Z,37.80
2019-04-30T10:35:00.959Z,36.40
2019-04-30T10:37:30.299Z,35.50
2019-04-30T10:39:59.865Z,36.60
2019-04-30T10:42:29.243Z,37.70
2019-04-30T10:45:00.314Z,36.70
2019-04-30T10:47:32.494Z,37.70
2019-04-30T10:50:00.871Z,36.40
2019-04-30T10:52:30.206Z,37.50
2019-04-30T10:54:59.628Z,39.20
2019-04-30T10:57:29.071Z,39.30
2019-04-30T10:59:58.764Z,39.90
2019-04-30T11:02:28.753Z,40.20
2019-04-30T11:04:59.272Z,40.60
2019-04-30T11:07:28.898Z,42.00
2019-04-30T11:09:58.845Z,50.00
2019-04-30T11:12:29.244Z,63.80
2019-04-30T11:14:58.720Z,72.00
2019-04-30T11:17:29.728Z,99.90
2019-04-30T11:19:59.382Z,99.90
2019-04-30T11:22:28.955Z,99.90
2019-04-30T11:25:02.440Z,99.90
2019-04-30T11:27:30.639Z,99.90
2019-04-30T11:30:03.570Z,99.90
2019-04-30T11:32:31.738Z,99.90
2019-04-30T11:35:01.239Z,99.90
2019-04-30T11:37:30.579Z,99.90
2019-04-30T11:39:59.923Z,99.90
2019-04-30T11:42:29.275Z,99.90
2019-04-30T11:44:58.662Z,99.90
2019-04-30T11:47:34.211Z,99.90
2019-04-30T11:50:04.959Z,99.90
2019-04-30T11:52:34.395Z,99.90
2019-04-30T11:55:03.858Z,99.90
2019-04-30T11:57:33.295Z,99.90
2019-04-30T12:00:02.731Z,99.90
2019-04-30T12:02:36.889Z,99.90
2019-04-30T12:05:07.058Z,99.90
2019-04-30T12:07:55.396Z,99.90
2019-04-30T12:10:39.190Z,99.90
2019-04-30T12:13:24.321Z,99.90
2019-04-30T12:15:54.141Z,99.90
2019-04-30T12:18:23.686Z,99.90
2019-04-30T12:20:53.003Z,99.90
2019-04-30T12:23:22.331Z,99.90
2019-04-30T12:25:51.663Z,99.90
2019-04-30T12:28:21.040Z,99.90
2019-04-30T12:30:50.413Z,99.90
2019-04-30T12:33:19.824Z,99.90
2019-04-30T12:35:51.234Z,99.90
2019-04-30T12:38:20.224Z,99.90
2019-04-30T12:40:49.623Z,99.90
2019-04-30T12:43:18.980Z,99.90
2019-04-30T12:46:01.632Z,99.90
2019-04-30T12:48:31.532Z,99.90
2019-04-30T12:51:12.310Z,99.90
2019-04-30T12:53:50.487Z,99.90
2019-04-30T12:56:41.578Z,99.90
2019-04-30T12:59:10.923Z,99.90
2019-04-30T13:01:40.332Z,99.90
2019-04-30T13:04:09.912Z,99.90
2019-04-30T13:06:39.814Z,99.90
2019-04-30T13:09:11.245Z,99.90
2019-04-30T13:11:41.950Z,99.90
2019-04-30T13:14:12.303Z,99.90
2019-04-30T13:16:42.058Z,99.90
2019-04-30T13:19:11.398Z,99.90
2019-04-30T13:21:40.710Z,99.90
2019-04-30T13:24:10.099Z,99.90
2019-04-30T13:26:39.722Z,98.70
2019-04-30T13:29:17.224Z,96.30
2019-04-30T13:31:50.145Z,94.30
2019-04-30T13:34:54.494Z,97.70
2019-04-30T13:37:23.891Z,91.80
2019-04-30T13:40:12.178Z,93.20
2019-04-30T13:42:44.521Z,90.60
2019-04-30T13:45:14.018Z,91.60
2019-04-30T13:47:43.348Z,93.60
2019-04-30T13:50:12.875Z,90.00
2019-04-30T13:52:42.206Z,90.40
2019-04-30T13:55:11.535Z,89.80
2019-04-30T13:57:40.929Z,90.40
2019-04-30T14:00:12.714Z,91.30
2019-04-30T14:02:46.997Z,90.50
2019-04-30T14:05:17.314Z,89.80
2019-04-30T14:08:14.734Z,87.40
2019-04-30T14:10:45.324Z,79.80
2019-04-30T14:13:14.651Z,80.20
2019-04-30T14:15:44.834Z,81.20
2019-04-30T14:18:14.156Z,79.80
2019-04-30T14:20:43.550Z,79.00
2019-04-30T14:23:12.883Z,73.80
2019-04-30T14:25:42.283Z,77.40
2019-04-30T14:28:11.603Z,76.00
2019-04-30T14:30:41.054Z,68.90
2019-04-30T14:33:22.732Z,70.00
2019-04-30T14:35:41.421Z,71.70
2019-04-30T14:38:10.746Z,70.40
2019-04-30T14:40:40.713Z,70.50
2019-04-30T14:43:41.675Z,69.30
2019-04-30T14:46:32.193Z,66.60
2019-04-30T14:49:17.859Z,66.30
2019-04-30T14:51:49.038Z,64.70
2019-04-30T14:54:24.710Z,65.70
2019-04-30T14:57:28.106Z,63.60
2019-04-30T15:00:19.087Z,63.90
2019-04-30T15:02:52.958Z,63.90
2019-04-30T15:05:22.563Z,65.20
2019-04-30T15:07:51.886Z,68.10
2019-04-30T15:10:21.811Z,64.70
2019-04-30T15:12:51.138Z,68.20
2019-04-30T15:15:20.578Z,67.00
2019-04-30T15:17:49.911Z,66.40
2019-04-30T15:20:19.801Z,65.40
2019-04-30T15:23:10.198Z,66.30
2019-04-30T15:25:39.531Z,68.00
2019-04-30T15:28:09.828Z,68.50
2019-04-30T15:30:41.860Z,67.00
2019-04-30T15:33:18.832Z,65.60
2019-04-30T15:35:50.070Z,66.50
2019-04-30T15:38:20.779Z,66.00
2019-04-30T15:40:50.186Z,66.90
2019-04-30T15:43:19.511Z,68.60
2019-04-30T15:45:49.448Z,70.10
2019-04-30T15:48:19.635Z,70.20
2019-04-30T15:50:49.323Z,72.80
2019-04-30T15:53:19.367Z,73.10
2019-04-30T15:55:48.785Z,71.80
2019-04-30T15:58:23.013Z,71.20
2019-04-30T16:00:52.435Z,71.90
2019-04-30T16:03:25.888Z,72.80
2019-04-30T16:05:55.296Z,74.30
2019-04-30T16:08:49.550Z,75.20
2019-04-30T16:11:36.278Z,76.90
2019-04-30T16:14:13.530Z,77.00
2019-04-30T16:16:45.837Z,76.00
2019-04-30T16:19:15.166Z,77.80
2019-04-30T16:21:44.511Z,77.00
2019-04-30T16:24:13.916Z,77.30
2019-04-30T16:26:50.022Z,77.90
2019-04-30T16:29:14.287Z,78.40
2019-04-30T16:31:43.686Z,78.30
2019-04-30T16:34:13.012Z,78.90
2019-04-30T16:36:42.355Z,78.30
2019-04-30T16:39:11.986Z,78.50
2019-04-30T16:41:41.315Z,79.50
2019-04-30T16:44:10.714Z,79.20
2019-04-30T16:46:40.051Z,79.60
2019-04-30T16:49:10.200Z,80.90
2019-04-30T16:51:40.423Z,81.10
2019-04-30T16:54:09.754Z,81.20
2019-04-30T16:56:39.080Z,80.70
2019-04-30T16:59:10.386Z,81.00
2019-04-30T17:01:39.823Z,81.40
2019-04-30T17:04:20.994Z,81.60
2019-04-30T17:06:58.674Z,82.10
2019-04-30T17:09:39.242Z,81.50
2019-04-30T17:12:16.886Z,80.70
2019-04-30T17:14:49.202Z,81.10
2019-04-30T17:17:18.600Z,80.40
2019-04-30T17:19:49.211Z,82.60
2019-04-30T17:22:18.635Z,82.80
2019-04-30T17:24:49.103Z,82.50
2019-04-30T17:27:21.961Z,82.90
2019-04-30T17:29:49.942Z,85.00
2019-04-30T17:32:19.355Z,84.10
2019-04-30T17:34:49.248Z,85.40
2019-04-30T17:37:19.034Z,83.60
2019-04-30T17:39:49.475Z,84.50
2019-04-30T17:42:19.519Z,84.50
2019-04-30T17:44:58.511Z,83.80
2019-04-30T17:47:19.909Z,84.50
2019-04-30T17:49:50.895Z,83.90
2019-04-30T17:52:21.738Z,83.30
2019-04-30T17:54:51.237Z,82.60
2019-04-30T17:57:31.371Z,84.40
2019-04-30T17:59:51.715Z,85.30
2019-04-30T18:02:22.634Z,86.00
2019-04-30T18:04:51.976Z,85.10
2019-04-30T18:07:21.374Z,86.80
2019-04-30T18:09:50.704Z,90.20
2019-04-30T18:12:20.111Z,90.50
2019-04-30T18:14:49.532Z,90.40
2019-04-30T18:17:19.262Z,90.60
2019-04-30T18:20:08.984Z,90.40
2019-04-30T18:23:02.970Z,91.70
2019-04-30T18:25:48.378Z,91.40
2019-04-30T18:28:19.109Z,90.50
2019-04-30T18:30:49.128Z,91.40
2019-04-30T18:33:18.531Z,91.80
2019-04-30T18:35:48.693Z,90.90
2019-04-30T18:38:18.175Z,92.80
2019-04-30T18:40:49.441Z,91.10
2019-04-30T18:43:20.548Z,91.90
2019-04-30T18:45:49.835Z,91.20
2019-04-30T18:48:19.575Z,92.20
2019-04-30T18:50:48.954Z,91.90
2019-04-30T18:53:22.362Z,92.40
2019-04-30T18:55:51.794Z,92.60
2019-04-30T18:58:21.195Z,91.10
2019-04-30T19:00:50.708Z,92.20
2019-04-30T19:03:21.915Z,90.80
2019-04-30T19:05:56.247Z,90.60
2019-04-30T19:08:31.535Z,85.80
2019-04-30T19:11:12.675Z,85.70
2019-04-30T19:13:59.289Z,83.00
2019-04-30T19:16:59.776Z,79.10
2019-04-30T19:19:40.958Z,77.40
2019-04-30T19:22:10.288Z,78.00
2019-04-30T19:24:52.711Z,76.40
2019-04-30T19:27:10.927Z,79.50
2019-04-30T19:29:40.257Z,78.90
2019-04-30T19:32:09.586Z,78.50
2019-04-30T19:34:39.101Z,79.80
2019-04-30T19:37:08.734Z,75.60
2019-04-30T19:39:39.234Z,74.10
2019-04-30T19:42:09.071Z,76.50
2019-04-30T19:44:39.473Z,77.40
2019-04-30T19:47:09.364Z,77.20
2019-04-30T19:49:40.675Z,78.20
2019-04-30T19:52:11.817Z,74.10
2019-04-30T19:54:40.774Z,74.30
2019-04-30T19:57:10.504Z,76.40
2019-04-30T19:59:39.827Z,73.70
2019-04-30T20:02:10.671Z,72.80
2019-04-30T20:04:42.144Z,73.30
2019-04-30T20:07:11.186Z,75.30
2019-04-30T20:09:42.980Z,72.70
2019-04-30T20:12:11.545Z,74.00
2019-04-30T20:14:40.942Z,76.30
2019-04-30T20:17:13.066Z,74.00
2019-04-30T20:19:41.335Z,75.80
2019-04-30T20:22:10.805Z,73.60
2019-04-30T20:24:40.188Z,74.30
2019-04-30T20:27:10.199Z,72.70
2019-04-30T20:29:40.887Z,71.40
2019-04-30T20:32:10.320Z,68.60
2019-04-30T20:34:39.675Z,66.20
2019-04-30T20:37:08.994Z,63.60
2019-04-30T20:39:50.274Z,63.10
2019-04-30T20:42:19.608Z,60.30
2019-04-30T20:44:49.088Z,57.40
2019-04-30T20:47:21.032Z,59.60
2019-04-30T20:49:49.574Z,59.30
2019-04-30T20:52:20.697Z,57.40
2019-04-30T20:54:50.185Z,55.20
2019-04-30T20:57:19.939Z,56.50
2019-04-30T20:59:49.408Z,56.80
2019-04-30T21:02:20.453Z,54.70
2019-04-30T21:04:50.914Z,55.10
2019-04-30T21:07:20.238Z,54.70
2019-04-30T21:09:49.634Z,55.40
2019-04-30T21:12:19.007Z,52.80
2019-04-30T21:14:48.612Z,57.40
2019-04-30T21:17:17.963Z,54.60
2019-04-30T21:19:47.299Z,55.60
2019-04-30T21:22:16.690Z,56.90
2019-04-30T21:24:46.006Z,59.00
2019-04-30T21:27:15.382Z,55.90
2019-04-30T21:29:44.782Z,58.80
2019-04-30T21:32:22.098Z,61.90
2019-04-30T21:35:19.529Z,61.70
2019-04-30T21:37:48.926Z,57.50
2019-04-30T21:40:19.582Z,62.90
2019-04-30T21:42:49.054Z,55.50
2019-04-30T21:45:18.375Z,58.80
2019-04-30T21:47:56.187Z,58.20
2019-04-30T21:50:20.148Z,59.50
2019-04-30T21:52:49.630Z,62.20
2019-04-30T21:55:19.810Z,62.50
2019-04-30T21:57:49.663Z,63.00
2019-04-30T22:00:39.691Z,61.10
2019-04-30T22:03:09.733Z,56.80
2019-04-30T22:05:39.187Z,58.90
2019-04-30T22:08:09.092Z,58.90
2019-04-30T22:10:38.590Z,62.30
2019-04-30T22:13:08.919Z,57.10
2019-04-30T22:15:38.390Z,58.70
2019-04-30T22:18:07.738Z,60.40
2019-04-30T22:20:38.765Z,59.00
2019-04-30T22:23:08.249Z,61.60
2019-04-30T22:25:39.249Z,62.70
2019-04-30T22:28:08.661Z,63.10
2019-04-30T22:30:38.013Z,63.20
2019-04-30T22:33:08.953Z,62.30
2019-04-30T22:35:47.884Z,63.50
2019-04-30T22:38:20.554Z,64.70
2019-04-30T22:40:49.887Z,65.80
2019-04-30T22:43:19.214Z,67.00
2019-04-30T22:45:53.567Z,66.80
2019-04-30T22:48:22.896Z,66.20
2019-04-30T22:50:52.246Z,68.80
2019-04-30T22:53:21.646Z,68.50
2019-04-30T22:55:50.978Z,68.50
2019-04-30T22:58:20.303Z,67.60
2019-04-30T23:00:51.174Z,69.30
2019-04-30T23:03:25.735Z,68.20
2019-04-30T23:05:55.070Z,69.10
2019-04-30T23:08:24.391Z,70.50
2019-04-30T23:10:53.711Z,70.10
2019-04-30T23:13:23.053Z,66.40
2019-04-30T23:15:54.603Z,67.60
2019-04-30T23:18:23.975Z,70.20
2019-04-30T23:20:53.370Z,68.90
2019-04-30T23:23:22.690Z,67.80
2019-04-30T23:25:52.093Z,70.30
2019-04-30T23:28:21.535Z,67.20
2019-04-30T23:30:50.959Z,65.20
2019-04-30T23:33:20.335Z,71.00
2019-04-30T23:35:49.661Z,73.40
2019-04-30T23:38:18.991Z,72.60
2019-04-30T23:40:50.744Z,71.30
2019-04-30T23:43:20.242Z,72.90
2019-04-30T23:45:49.575Z,67.00
2019-04-30T23:48:18.898Z,71.70
2019-04-30T23:50:48.228Z,68.40
2019-04-30T23:53:17.545Z,68.00
2019-04-30T23:55:46.862Z,67.90
2019-04-30T23:58:16.201Z,69.10
